Time;durP1;ratioP1;P1;durP2;ratioP2;P2;SDS_P1;SDS_P2;PMS_P1;PMS_P2;Temp;Humidity;BMP_temperature;BMP_pressure;BME280_temperature;BME280_humidity;BME280_pressure;Samples;Min_cycle;Max_cycle;Signal;HPM_P1;HPM_P2
2023/10/05 00:01:56;;;;;;;7.60;7.30;;;22.10;99.90;;;;;;5073502;28;20500;-65
2023/10/05 00:04:26;;;;;;;7.67;7.37;;;22.10;99.90;;;;;;5069158;28;20524;-65
2023/10/05 00:06:54;;;;;;;8.60;8.20;;;22.10;99.90;;;;;;5073329;28;20447;-65
2023/10/05 00:09:24;;;;;;;8.23;7.83;;;22.10;99.90;;;;;;5073243;28;20822;-65
2023/10/05 00:11:53;;;;;;;8.20;7.80;;;22.10;99.90;;;;;;5073189;28;20479;-65
2023/10/05 00:14:21;;;;;;;8.60;8.10;;;22.10;99.90;;;;;;5068647;28;20479;-65
2023/10/05 00:16:48;;;;;;;7.90;7.60;;;22.10;99.90;;;;;;5073155;28;20522;-65
2023/10/05 00:19:20;;;;;;;8.70;8.27;;;22.00;99.90;;;;;;5073382;28;20471;-65
2023/10/05 00:21:50;;;;;;;8.97;8.47;;;22.10;99.90;;;;;;5072956;28;20455;-65
2023/10/05 00:24:19;;;;;;;8.63;8.13;;;22.00;99.90;;;;;;5068889;28;20475;-65
2023/10/05 00:26:49;;;;;;;8.23;7.87;;;22.00;99.90;;;;;;5073062;28;20445;-65
2023/10/05 00:29:19;;;;;;;9.00;8.50;;;22.00;99.90;;;;;;5072969;28;20436;-66
2023/10/05 00:31:46;;;;;;;7.97;7.57;;;22.00;99.90;;;;;;5072768;28;20482;-66
2023/10/05 00:34:21;;;;;;;8.73;8.20;;;22.00;99.90;;;;;;5065106;28;21114;-66
2023/10/05 00:36:50;;;;;;;8.30;7.90;;;22.00;99.90;;;;;;5070269;28;20821;-66
2023/10/05 00:39:19;;;;;;;8.97;8.37;;;22.00;99.90;;;;;;5072975;28;20435;-65
2023/10/05 00:41:49;;;;;;;7.83;7.53;;;22.00;99.90;;;;;;5072731;28;20447;-66
2023/10/05 00:44:16;;;;;;;8.20;7.80;;;22.00;99.90;;;;;;5069107;28;20524;-65
2023/10/05 00:46:49;;;;;;;7.60;7.30;;;22.00;99.90;;;;;;5072718;28;20447;-65
2023/10/05 00:49:19;;;;;;;8.80;8.17;;;22.00;99.90;;;;;;5072813;28;20823;-65
2023/10/05 00:51:55;;;;;;;8.47;8.07;;;22.00;99.90;;;;;;5071192;28;20574;-65
2023/10/05 00:54:30;;;;;;;9.07;8.60;;;21.90;99.90;;;;;;5055737;28;20474;-65
2023/10/05 00:57:02;;;;;;;8.47;8.17;;;22.00;99.90;;;;;;5052820;28;20439;-65
2023/10/05 00:59:31;;;;;;;9.03;8.63;;;22.00;99.90;;;;;;5052798;28;20502;-66
2023/10/05 01:02:14;;;;;;;8.00;7.70;;;22.00;99.90;;;;;;5053973;28;20880;-66
2023/10/05 01:10:29;;;;;;;8.03;7.50;;;21.90;99.90;;;;;;5066996;28;20451;-66
2023/10/05 01:13:00;;;;;;;8.40;8.00;;;22.00;99.90;;;;;;5072113;28;20448;-66
2023/10/05 01:15:33;;;;;;;7.30;7.00;;;21.90;99.90;;;;;;5072281;28;20481;-66
2023/10/05 01:18:00;;;;;;;8.50;8.10;;;21.90;99.90;;;;;;5072293;28;20440;-66
2023/10/05 01:20:29;;;;;;;8.00;7.70;;;21.90;99.90;;;;;;5071630;28;20443;-66
2023/10/05 01:22:57;;;;;;;7.83;7.53;;;21.90;99.90;;;;;;5071875;28;20456;-67
2023/10/05 01:25:27;;;;;;;7.77;7.47;;;21.90;99.90;;;;;;5072141;28;20439;-66
2023/10/05 01:27:55;;;;;;;7.93;7.63;;;21.90;99.90;;;;;;5072340;28;20493;-66
2023/10/05 01:30:22;;;;;;;7.90;7.50;;;21.90;99.90;;;;;;5055094;28;20441;-66
2023/10/05 01:32:54;;;;;;;7.50;7.20;;;21.90;99.90;;;;;;5051912;28;20534;-66
2023/10/05 01:35:23;;;;;;;8.40;7.97;;;21.90;99.90;;;;;;5052013;28;20538;-68
2023/10/05 01:37:53;;;;;;;8.73;8.33;;;21.90;99.90;;;;;;5052021;28;20447;-67
2023/10/05 01:40:25;;;;;;;7.53;7.17;;;21.90;99.90;;;;;;5052999;28;20452;-67
2023/10/05 01:42:54;;;;;;;8.03;7.63;;;21.90;99.90;;;;;;5051634;28;20518;-66
2023/10/05 01:45:29;;;;;;;7.30;6.80;;;21.90;99.90;;;;;;5067764;28;20479;-68
2023/10/05 01:48:01;;;;;;;7.60;7.30;;;21.90;99.90;;;;;;5071906;28;20445;-67
2023/10/05 01:50:28;;;;;;;8.43;7.83;;;21.90;99.90;;;;;;5070941;28;20818;-67
2023/10/05 01:53:04;;;;;;;7.73;7.23;;;21.90;99.90;;;;;;5067079;28;20922;-67
2023/10/05 01:55:35;;;;;;;6.90;6.60;;;21.90;99.90;;;;;;5051909;28;20970;-67
2023/10/05 01:58:05;;;;;;;7.80;7.47;;;21.90;99.90;;;;;;5051813;28;20487;-67
2023/10/05 02:00:37;;;;;;;8.00;7.60;;;21.90;99.90;;;;;;5064174;28;21005;-67
2023/10/05 02:03:07;;;;;;;7.83;7.30;;;21.80;99.90;;;;;;5053921;28;20492;-67
2023/10/05 02:05:36;;;;;;;8.00;7.67;;;21.80;99.90;;;;;;5051632;28;20448;-67
2023/10/05 02:08:03;;;;;;;7.27;6.97;;;21.80;99.90;;;;;;5051543;28;20444;-67
2023/10/05 02:10:32;;;;;;;8.30;7.90;;;21.80;99.90;;;;;;5067929;28;20466;-66
2023/10/05 02:13:01;;;;;;;8.13;7.83;;;21.80;99.90;;;;;;5071216;28;20479;-66
2023/10/05 02:15:29;;;;;;;7.97;7.40;;;21.80;99.90;;;;;;5071595;28;20494;-65
2023/10/05 02:17:59;;;;;;;9.17;8.57;;;21.80;99.90;;;;;;5071544;28;20441;-66
2023/10/05 02:20:38;;;;;;;7.30;6.97;;;21.80;99.90;;;;;;5070875;28;20926;-66
2023/10/05 02:23:18;;;;;;;8.27;7.67;;;21.80;99.90;;;;;;5071360;28;20459;-67
2023/10/05 02:25:46;;;;;;;7.73;7.43;;;21.80;99.90;;;;;;5071481;28;20446;-66
2023/10/05 02:28:25;;;;;;;8.20;7.70;;;21.80;99.90;;;;;;5071403;28;20434;-67
2023/10/05 02:30:54;;;;;;;8.30;7.90;;;21.80;99.90;;;;;;5052967;28;20830;-66
2023/10/05 02:33:26;;;;;;;7.87;7.27;;;21.80;99.90;;;;;;5055131;28;20875;-67
2023/10/05 02:35:56;;;;;;;8.33;7.73;;;21.80;99.90;;;;;;5055493;28;20436;-67
2023/10/05 02:38:23;;;;;;;9.80;9.30;;;21.80;99.90;;;;;;5055336;28;20436;-67
2023/10/05 02:40:59;;;;;;;7.73;7.43;;;21.80;99.90;;;;;;5073801;28;20439;-67
2023/10/05 02:43:28;;;;;;;7.57;7.27;;;21.80;99.90;;;;;;5075131;28;20809;-65
2023/10/05 02:46:09;;;;;;;7.70;7.50;;;21.80;99.90;;;;;;5075182;28;20475;-67
2023/10/05 02:48:36;;;;;;;7.87;7.57;;;21.80;99.90;;;;;;5074664;28;20443;-65
2023/10/05 02:51:05;;;;;;;7.33;7.00;;;21.80;99.90;;;;;;5055180;28;20432;-67
2023/10/05 02:53:41;;;;;;;7.33;7.07;;;21.80;99.90;;;;;;5054848;28;20491;-66
2023/10/05 02:56:17;;;;;;;7.00;6.70;;;21.80;99.90;;;;;;5055026;28;20439;-68
2023/10/05 02:58:44;;;;;;;7.20;6.90;;;21.80;99.90;;;;;;5069509;28;20816;-66
2023/10/05 03:01:15;;;;;;;7.37;6.97;;;21.80;99.90;;;;;;5074822;28;20508;-67
2023/10/05 03:03:44;;;;;;;7.50;7.20;;;21.80;99.90;;;;;;5074632;28;20520;-65
2023/10/05 03:06:11;;;;;;;8.37;8.07;;;21.80;99.90;;;;;;5074749;28;20447;-67
2023/10/05 03:08:39;;;;;;;7.70;7.40;;;21.70;99.90;;;;;;5060684;28;20915;-66
2023/10/05 03:11:08;;;;;;;7.90;7.50;;;21.70;99.90;;;;;;5054912;28;20447;-67
2023/10/05 03:13:37;;;;;;;8.30;7.90;;;21.70;99.90;;;;;;5054435;28;20534;-66
2023/10/05 03:16:10;;;;;;;6.27;6.00;;;21.70;99.90;;;;;;5054622;28;20444;-67
2023/10/05 03:18:41;;;;;;;7.70;7.40;;;21.70;99.90;;;;;;5067590;28;20450;-67
2023/10/05 03:21:13;;;;;;;8.13;7.67;;;21.70;99.90;;;;;;5074634;28;20478;-67
2023/10/05 03:23:42;;;;;;;7.93;7.63;;;21.70;99.90;;;;;;5074230;28;20457;-67
2023/10/05 03:26:11;;;;;;;7.93;7.60;;;21.70;99.90;;;;;;5074416;28;20439;-66
2023/10/05 03:28:38;;;;;;;7.37;7.07;;;21.70;99.90;;;;;;5072708;28;20451;-67
2023/10/05 03:31:14;;;;;;;8.90;8.27;;;21.70;99.90;;;;;;5065858;28;20441;-67
2023/10/05 03:33:43;;;;;;;8.20;7.90;;;21.70;99.90;;;;;;5054109;28;20843;-67
2023/10/05 03:36:14;;;;;;;8.70;8.20;;;21.70;99.90;;;;;;5054192;28;20436;-67
2023/10/05 03:38:42;;;;;;;7.90;7.50;;;21.70;99.90;;;;;;5058257;28;20492;-67
2023/10/05 03:41:15;;;;;;;7.97;7.67;;;21.70;99.90;;;;;;5071029;28;20538;-67
2023/10/05 03:43:44;;;;;;;7.37;7.10;;;21.70;99.90;;;;;;5073894;28;20822;-67
2023/10/05 03:46:11;;;;;;;8.27;7.77;;;21.70;99.90;;;;;;5074047;28;20817;-66
2023/10/05 03:48:39;;;;;;;7.73;7.43;;;21.70;99.90;;;;;;5073414;28;20451;-66
2023/10/05 03:51:15;;;;;;;7.50;7.20;;;21.70;99.90;;;;;;5073931;28;20454;-67
2023/10/05 03:53:48;;;;;;;7.93;7.67;;;21.70;99.90;;;;;;5073615;28;20990;-66
2023/10/05 03:56:23;;;;;;;8.17;7.87;;;21.70;99.90;;;;;;5073926;28;20966;-67
2023/10/05 03:58:52;;;;;;;7.80;7.50;;;21.70;99.90;;;;;;5059603;28;20792;-67
2023/10/05 04:01:22;;;;;;;8.37;8.07;;;21.70;99.90;;;;;;5053816;28;20807;-67
2023/10/05 04:03:50;;;;;;;8.80;8.20;;;21.70;99.90;;;;;;5053473;28;20530;-67
2023/10/05 04:06:20;;;;;;;9.03;8.63;;;21.70;99.90;;;;;;5060000;28;20454;-67
2023/10/05 04:08:49;;;;;;;9.40;9.00;;;21.70;99.90;;;;;;5073801;28;20458;-66
2023/10/05 04:11:18;;;;;;;10.13;9.60;;;21.70;99.90;;;;;;5073644;28;20863;-66
2023/10/05 04:13:46;;;;;;;10.37;9.70;;;21.70;99.90;;;;;;5073209;28;20487;-67
2023/10/05 04:16:21;;;;;;;10.77;10.07;;;21.80;99.90;;;;;;5070717;28;20534;-67
2023/10/05 04:18:49;;;;;;;11.57;10.10;;;21.80;99.90;;;;;;5053523;28;20526;-67
2023/10/05 04:21:19;;;;;;;15.10;11.13;;;21.80;99.90;;;;;;5053327;28;20443;-66
2023/10/05 04:23:49;;;;;;;17.70;13.20;;;21.80;99.90;;;;;;5053110;28;20862;-66
2023/10/05 04:26:18;;;;;;;18.40;12.53;;;21.80;99.90;;;;;;5059005;28;20829;-66
2023/10/05 04:28:52;;;;;;;11.40;10.43;;;21.80;99.90;;;;;;5073283;28;20435;-67
2023/10/05 04:31:22;;;;;;;13.13;11.80;;;21.80;99.90;;;;;;5073188;28;20454;-68
2023/10/05 04:33:50;;;;;;;14.50;10.83;;;21.80;99.90;;;;;;5072863;28;20926;-67
2023/10/05 04:36:22;;;;;;;20.00;12.57;;;21.80;99.90;;;;;;5072509;28;20522;-67
2023/10/05 04:38:49;;;;;;;20.63;12.67;;;21.80;99.90;;;;;;5071676;28;20534;-69
2023/10/05 04:41:19;;;;;;;17.70;8.88;;;21.80;99.90;;;;;;5057986;28;20442;-65
2023/10/05 04:43:48;;;;;;;21.83;8.40;;;21.80;99.90;;;;;;5057413;28;20216;-65
2023/10/05 04:46:18;;;;;;;13.53;8.60;;;21.70;99.90;;;;;;5072771;28;20521;-65
2023/10/05 04:48:55;;;;;;;13.90;8.10;;;21.70;99.90;;;;;;5072805;28;20443;-65
2023/10/05 04:51:24;;;;;;;9.80;7.37;;;21.60;99.90;;;;;;5072527;28;20532;-65
2023/10/05 04:53:54;;;;;;;11.70;7.53;;;21.60;99.90;;;;;;5071400;28;20522;-65
2023/10/05 04:56:28;;;;;;;12.60;8.70;;;21.50;99.90;;;;;;5072445;28;20986;-65
2023/10/05 04:59:23;;;;;;;9.93;6.80;;;21.50;99.90;;;;;;5072525;28;20449;-65
2023/10/05 05:01:59;;;;;;;9.27;7.07;;;21.50;99.90;;;;;;5072178;28;20447;-65
2023/10/05 05:04:41;;;;;;;14.17;7.20;;;21.50;99.90;;;;;;5072495;28;20799;-65
2023/10/05 05:07:09;;;;;;;14.07;8.10;;;21.50;99.90;;;;;;5072368;28;20450;-65
2023/10/05 05:09:39;;;;;;;9.70;7.30;;;21.50;99.90;;;;;;5072111;28;20938;-65
2023/10/05 05:12:08;;;;;;;6.93;6.03;;;21.40;99.90;;;;;;5071951;28;20522;-65
2023/10/05 05:14:37;;;;;;;8.50;7.10;;;21.40;99.90;;;;;;5072000;28;20459;-65
2023/10/05 05:17:05;;;;;;;12.07;9.77;;;21.40;99.90;;;;;;5072114;28;20935;-65
2023/10/05 05:19:32;;;;;;;9.50;7.30;;;21.40;99.90;;;;;;5072163;28;20462;-65
2023/10/05 05:22:00;;;;;;;8.50;6.90;;;21.40;99.90;;;;;;5071861;28;20467;-65
2023/10/05 05:24:29;;;;;;;10.63;7.47;;;21.40;99.90;;;;;;5071972;28;20467;-66
2023/10/05 05:27:00;;;;;;;10.47;7.10;;;21.40;99.90;;;;;;5071871;28;20447;-65
2023/10/05 05:29:29;;;;;;;7.27;6.57;;;21.40;99.90;;;;;;5071930;28;20826;-65
2023/10/05 05:31:56;;;;;;;7.90;7.10;;;21.40;99.90;;;;;;5071672;28;20466;-65
2023/10/05 05:34:25;;;;;;;10.23;7.00;;;21.40;99.90;;;;;;5071740;28;20487;-66
2023/10/05 05:36:54;;;;;;;8.43;7.60;;;21.40;99.90;;;;;;5071727;28;20443;-65
2023/10/05 05:39:21;;;;;;;9.97;7.10;;;21.40;99.90;;;;;;5071795;28;20444;-65
2023/10/05 05:41:59;;;;;;;8.03;6.47;;;21.40;99.90;;;;;;5071665;28;20450;-65
2023/10/05 05:44:27;;;;;;;9.20;7.10;;;21.40;99.90;;;;;;5071582;28;20470;-65
2023/10/05 05:46:59;;;;;;;8.20;6.10;;;21.40;99.90;;;;;;5071745;28;20519;-65
2023/10/05 05:49:27;;;;;;;7.47;6.87;;;21.40;99.90;;;;;;5071555;28;20444;-66
2023/10/05 05:51:57;;;;;;;10.70;7.20;;;21.40;99.90;;;;;;5071451;28;20442;-65
2023/10/05 05:54:24;;;;;;;7.67;6.97;;;21.40;99.90;;;;;;5071404;28;20481;-65
2023/10/05 05:56:54;;;;;;;8.93;6.57;;;21.40;99.90;;;;;;5071561;28;20471;-66
2023/10/05 05:59:22;;;;;;;10.93;7.83;;;21.40;99.90;;;;;;5071451;28;20443;-66
2023/10/05 06:01:50;;;;;;;10.27;6.57;;;21.40;99.90;;;;;;5071361;28;20446;-66
2023/10/05 06:04:17;;;;;;;7.10;6.40;;;21.40;99.90;;;;;;5071039;28;20973;-66
2023/10/05 06:06:44;;;;;;;8.93;8.10;;;21.40;99.90;;;;;;5071418;28;20470;-66
2023/10/05 06:09:11;;;;;;;9.30;6.77;;;21.40;99.90;;;;;;5071288;28;20450;-66
2023/10/05 06:11:40;;;;;;;10.20;8.07;;;21.40;99.90;;;;;;5071342;28;20926;-66
2023/10/05 06:14:08;;;;;;;11.60;7.17;;;21.40;99.90;;;;;;5070995;28;20490;-66
2023/10/05 06:16:35;;;;;;;11.07;6.87;;;21.40;99.90;;;;;;5071432;28;20473;-67
2023/10/05 06:19:02;;;;;;;7.63;7.13;;;21.40;99.90;;;;;;5071344;28;20443;-66
2023/10/05 06:21:29;;;;;;;7.63;6.93;;;21.40;99.90;;;;;;5071192;28;20435;-67
2023/10/05 06:23:57;;;;;;;7.10;6.40;;;21.30;99.90;;;;;;5071045;28;20494;-67
2023/10/05 06:26:24;;;;;;;7.40;6.13;;;21.40;99.90;;;;;;5071427;28;20436;-67
2023/10/05 06:28:51;;;;;;;7.07;6.67;;;21.40;99.90;;;;;;5071418;28;20451;-67
2023/10/05 06:31:19;;;;;;;7.50;6.97;;;21.40;99.90;;;;;;5071242;28;20481;-67
2023/10/05 06:33:47;;;;;;;7.73;6.20;;;21.30;99.90;;;;;;5070827;28;20534;-66
2023/10/05 06:36:14;;;;;;;5.93;5.53;;;21.30;99.90;;;;;;5071254;28;20439;-66
2023/10/05 06:38:41;;;;;;;7.37;6.87;;;21.40;99.90;;;;;;5071167;28;20438;-67
2023/10/05 06:41:08;;;;;;;7.97;6.50;;;21.30;99.90;;;;;;5071118;28;20961;-66
2023/10/05 06:43:35;;;;;;;7.23;6.70;;;21.30;99.90;;;;;;5070815;28;20487;-67
2023/10/05 06:46:09;;;;;;;6.80;6.10;;;21.30;99.90;;;;;;5071005;28;20923;-67
2023/10/05 06:48:37;;;;;;;6.67;6.17;;;21.30;99.90;;;;;;5071092;28;20431;-67
2023/10/05 06:51:04;;;;;;;13.00;7.87;;;21.30;99.90;;;;;;5070925;28;20447;-66
2023/10/05 06:53:31;;;;;;;6.43;6.10;;;21.30;99.90;;;;;;5070743;28;20487;-67
2023/10/05 06:55:58;;;;;;;7.23;6.53;;;21.30;99.90;;;;;;5070961;28;20901;-66
2023/10/05 06:58:26;;;;;;;8.30;6.63;;;21.30;99.90;;;;;;5070834;28;20497;-66
2023/10/05 07:00:53;;;;;;;5.60;5.30;;;21.30;99.90;;;;;;5070900;28;20534;-66
2023/10/05 07:03:20;;;;;;;6.83;6.20;;;21.30;99.90;;;;;;5070729;28;20822;-64
2023/10/05 07:05:48;;;;;;;10.73;7.80;;;21.30;99.90;;;;;;5070946;28;20439;-65
2023/10/05 07:08:15;;;;;;;6.47;6.07;;;21.30;99.90;;;;;;5070921;28;20490;-66
2023/10/05 07:10:42;;;;;;;6.40;5.80;;;21.30;99.90;;;;;;5070749;28;20504;-66
2023/10/05 07:13:09;;;;;;;6.07;5.70;;;21.30;99.90;;;;;;5070474;28;20485;-66
2023/10/05 07:15:36;;;;;;;5.67;5.37;;;21.30;99.90;;;;;;5070854;28;20439;-66
2023/10/05 07:18:04;;;;;;;8.13;6.43;;;21.30;99.90;;;;;;5073440;28;20478;-66
2023/10/05 07:20:31;;;;;;;6.03;5.63;;;21.30;99.90;;;;;;5074410;28;20458;-66
2023/10/05 07:22:59;;;;;;;7.20;5.77;;;21.30;99.90;;;;;;5074088;28;21043;-66
2023/10/05 07:25:26;;;;;;;6.80;6.40;;;21.30;99.90;;;;;;5074481;28;20474;-66
2023/10/05 07:27:53;;;;;;;7.00;6.40;;;21.30;99.90;;;;;;5074243;28;20482;-66
2023/10/05 07:30:20;;;;;;;5.83;5.53;;;21.30;99.90;;;;;;5074208;28;20478;-66
2023/10/05 07:32:47;;;;;;;5.60;5.30;;;21.30;99.90;;;;;;5073831;28;20486;-65
2023/10/05 07:35:14;;;;;;;6.97;6.47;;;21.30;99.90;;;;;;5062448;22;20519;-60
2023/10/05 07:37:41;;;;;;;6.50;5.90;;;21.30;99.90;;;;;;5034007;28;20517;-61
2023/10/05 07:40:13;;;;;;;6.07;5.77;;;21.30;99.90;;;;;;5034000;28;20778;-61
2023/10/05 07:42:40;;;;;;;5.80;5.50;;;21.30;99.90;;;;;;5033608;28;20577;-61
2023/10/05 07:45:08;;;;;;;5.90;5.50;;;21.30;99.90;;;;;;5025457;28;20461;-60
2023/10/05 07:47:41;;;;;;;6.47;6.07;;;21.30;99.90;;;;;;5025687;28;20517;-57
2023/10/05 07:50:10;;;;;;;5.90;5.57;;;21.30;99.90;;;;;;5023795;28;20808;-59
2023/10/05 07:52:38;;;;;;;5.73;5.40;;;21.30;99.90;;;;;;5021770;28;20444;-60
2023/10/05 07:55:07;;;;;;;6.00;5.60;;;21.30;99.90;;;;;;5023292;28;20997;-60
2023/10/05 07:57:35;;;;;;;6.20;5.70;;;21.20;99.90;;;;;;5025328;28;20442;-62
2023/10/05 08:00:03;;;;;;;5.83;5.43;;;21.30;99.90;;;;;;5024515;28;20894;-59
2023/10/05 08:02:31;;;;;;;6.17;5.67;;;21.20;99.90;;;;;;5021739;28;20836;-57
2023/10/05 08:04:57;;;;;;;5.47;5.13;;;21.20;99.90;;;;;;5021817;28;20532;-60
2023/10/05 08:07:24;;;;;;;5.57;5.27;;;21.20;99.90;;;;;;5025111;28;20476;-61
2023/10/05 08:09:51;;;;;;;5.43;5.20;;;21.20;99.90;;;;;;5025163;28;20448;-59
2023/10/05 08:12:18;;;;;;;6.50;6.13;;;21.30;99.90;;;;;;5024798;28;20495;-62
2023/10/05 08:14:48;;;;;;;5.90;5.60;;;21.30;99.90;;;;;;5024851;28;20485;-62
2023/10/05 08:17:17;;;;;;;5.87;5.33;;;21.30;99.90;;;;;;5022422;28;20536;-61
2023/10/05 08:19:44;;;;;;;6.10;5.90;;;21.30;99.90;;;;;;5021546;28;20461;-63
2023/10/05 08:22:11;;;;;;;6.20;5.80;;;21.20;99.90;;;;;;5023185;28;20477;-60
2023/10/05 08:24:38;;;;;;;7.30;6.80;;;21.30;99.90;;;;;;5024769;28;20467;-61
2023/10/05 08:27:06;;;;;;;5.97;5.47;;;21.20;99.90;;;;;;5023642;28;20480;-61
2023/10/05 08:29:34;;;;;;;6.37;5.97;;;21.30;99.90;;;;;;5021444;28;20501;-61
2023/10/05 08:32:06;;;;;;;5.67;5.47;;;21.20;99.90;;;;;;5021989;28;20446;-60
2023/10/05 08:34:33;;;;;;;5.30;5.10;;;21.20;99.90;;;;;;5024370;28;20485;-61
2023/10/05 08:37:02;;;;;;;6.17;5.93;;;21.20;99.90;;;;;;5024088;28;20441;-61
2023/10/05 08:39:34;;;;;;;6.07;5.63;;;21.20;99.90;;;;;;5021203;28;20457;-62
2023/10/05 08:42:02;;;;;;;5.60;5.37;;;21.20;99.90;;;;;;5021258;28;20446;-60
2023/10/05 08:44:30;;;;;;;5.43;5.20;;;21.20;99.90;;;;;;5024424;28;20468;-59
2023/10/05 08:46:58;;;;;;;6.10;5.77;;;21.20;99.90;;;;;;5024481;28;20818;-61
2023/10/05 08:49:28;;;;;;;6.37;6.00;;;21.20;99.90;;;;;;5013209;28;20442;-61
2023/10/05 08:51:56;;;;;;;5.83;5.53;;;21.30;99.90;;;;;;5020939;28;20528;-62
2023/10/05 08:54:27;;;;;;;5.97;5.67;;;21.20;99.90;;;;;;5023870;28;20480;-61
2023/10/05 08:56:57;;;;;;;6.00;5.70;;;21.20;99.90;;;;;;5024905;28;20449;-59
2023/10/05 08:59:26;;;;;;;6.10;5.80;;;21.30;99.90;;;;;;5012990;28;20447;-61
2023/10/05 09:01:55;;;;;;;5.23;4.93;;;21.30;99.90;;;;;;5020816;28;20446;-61
2023/10/05 09:04:29;;;;;;;5.27;4.83;;;21.20;99.90;;;;;;5023648;28;20820;-60
2023/10/05 09:06:59;;;;;;;6.27;5.87;;;21.20;99.90;;;;;;5024197;28;20445;-61
2023/10/05 09:09:37;;;;;;;6.47;6.20;;;21.20;99.90;;;;;;5012788;28;20508;-61
2023/10/05 09:12:32;;;;;;;5.23;5.03;;;21.20;99.90;;;;;;5020884;28;20477;-62
2023/10/05 09:15:14;;;;;;;4.70;4.53;;;21.30;99.90;;;;;;5023626;28;20539;-63
2023/10/05 09:17:59;;;;;;;5.63;5.37;;;21.20;99.90;;;;;;5020517;28;20457;-61
2023/10/05 09:20:30;;;;;;;5.10;5.00;;;21.20;99.90;;;;;;5012698;28;20453;-60
2023/10/05 09:23:00;;;;;;;5.23;5.03;;;21.20;99.90;;;;;;5020230;28;20442;-60
2023/10/05 09:25:34;;;;;;;5.17;4.97;;;21.20;99.90;;;;;;5012543;28;20524;-61
2023/10/05 09:28:13;;;;;;;5.67;5.33;;;21.20;99.90;;;;;;5020640;28;20476;-60
2023/10/05 09:30:55;;;;;;;6.00;5.70;;;21.30;99.90;;;;;;5023794;28;20878;-62
2023/10/05 09:33:24;;;;;;;5.70;5.40;;;21.20;99.90;;;;;;5020013;28;20821;-61
2023/10/05 09:35:51;;;;;;;5.77;5.57;;;21.20;99.90;;;;;;5020348;28;20442;-60
2023/10/05 09:38:21;;;;;;;5.00;4.90;;;21.20;99.90;;;;;;5022679;28;20536;-59
2023/10/05 09:40:48;;;;;;;5.40;5.20;;;21.30;99.90;;;;;;5023041;28;20944;-61
2023/10/05 09:43:18;;;;;;;5.60;5.40;;;21.20;99.90;;;;;;5021018;28;20476;-58
2023/10/05 09:45:49;;;;;;;5.13;4.93;;;21.30;99.90;;;;;;5020197;28;20488;-59
2023/10/05 09:48:19;;;;;;;5.87;5.57;;;21.20;99.90;;;;;;5022230;28;20474;-60
2023/10/05 09:50:47;;;;;;;5.23;5.03;;;21.20;99.90;;;;;;5023378;28;20801;-62
2023/10/05 09:53:17;;;;;;;4.83;4.60;;;21.30;99.90;;;;;;5021060;28;20477;-61
2023/10/05 09:55:49;;;;;;;5.27;5.00;;;21.20;99.90;;;;;;5019891;28;20442;-62
2023/10/05 09:58:18;;;;;;;4.63;4.53;;;21.30;99.90;;;;;;5021927;28;20446;-61
2023/10/05 10:00:55;;;;;;;5.57;5.27;;;21.30;99.90;;;;;;5023123;28;20473;-61
2023/10/05 10:03:22;;;;;;;4.73;4.53;;;21.30;99.90;;;;;;5019970;28;20437;-61
2023/10/05 10:05:54;;;;;;;4.80;4.60;;;21.30;99.90;;;;;;5019890;28;20484;-59
2023/10/05 10:08:23;;;;;;;5.27;5.07;;;21.30;99.90;;;;;;5022413;28;20452;-60
2023/10/05 10:11:02;;;;;;;4.83;4.73;;;21.30;99.90;;;;;;5023065;28;20497;-61
2023/10/05 10:13:32;;;;;;;4.83;4.63;;;21.20;99.90;;;;;;5011633;28;20823;-60
2023/10/05 10:16:02;;;;;;;5.00;4.80;;;21.30;99.90;;;;;;5019875;28;20806;-58
2023/10/05 10:18:37;;;;;;;4.77;4.67;;;21.30;99.90;;;;;;5011957;28;20941;-57
2023/10/05 10:21:09;;;;;;;4.83;4.73;;;21.30;99.90;;;;;;5019827;28;20955;-60
2023/10/05 10:23:39;;;;;;;5.40;5.10;;;21.30;99.90;;;;;;5022775;28;20511;-56
2023/10/05 10:26:16;;;;;;;5.17;5.00;;;21.30;99.90;;;;;;5022284;28;20449;-59
2023/10/05 10:28:56;;;;;;;5.00;4.83;;;21.30;99.90;;;;;;5019595;28;20448;-60
2023/10/05 10:31:26;;;;;;;5.60;5.30;;;21.30;99.90;;;;;;5022206;28;20445;-61
2023/10/05 10:33:53;;;;;;;4.80;4.60;;;21.30;99.90;;;;;;5022503;28;20510;-62
2023/10/05 10:36:23;;;;;;;5.17;5.00;;;21.30;99.90;;;;;;5020397;28;20854;-60
2023/10/05 10:38:51;;;;;;;5.07;4.87;;;21.20;99.90;;;;;;5019358;28;20448;-60
2023/10/05 10:41:22;;;;;;;4.93;4.70;;;21.30;99.90;;;;;;5021603;28;20457;-58
2023/10/05 10:43:52;;;;;;;5.20;5.00;;;21.30;99.90;;;;;;5022716;28;21000;-62
2023/10/05 10:46:28;;;;;;;4.60;4.50;;;21.30;99.90;;;;;;5020400;28;20959;-60
2023/10/05 10:48:58;;;;;;;4.50;4.40;;;21.30;99.90;;;;;;5019340;28;20449;-61
2023/10/05 10:51:30;;;;;;;4.80;4.70;;;21.30;99.90;;;;;;5022591;28;20863;-62
2023/10/05 10:53:58;;;;;;;4.97;4.83;;;21.30;99.90;;;;;;5026266;28;20484;-62
2023/10/05 10:56:30;;;;;;;5.40;5.30;;;21.30;99.90;;;;;;5023278;28;20448;-62
2023/10/05 10:59:09;;;;;;;5.10;5.00;;;21.30;99.90;;;;;;5023167;28;20515;-60
2023/10/05 11:01:43;;;;;;;5.33;5.23;;;21.30;99.90;;;;;;5016041;28;20453;-60
2023/10/05 11:04:23;;;;;;;5.43;5.23;;;21.30;99.90;;;;;;5023606;28;20657;-59
2023/10/05 11:06:59;;;;;;;4.87;4.70;;;21.30;99.90;;;;;;5026440;28;20792;-59
2023/10/05 11:09:31;;;;;;;4.83;4.73;;;21.30;99.90;;;;;;5023042;28;20499;-61
2023/10/05 11:12:12;;;;;;;4.60;4.50;;;21.30;99.90;;;;;;5022744;28;20556;-61
2023/10/05 11:14:46;;;;;;;5.47;5.37;;;21.30;99.90;;;;;;5016118;28;20918;-59
2023/10/05 11:17:28;;;;;;;5.07;4.87;;;21.30;99.90;;;;;;5023943;28;20529;-60
2023/10/05 11:19:55;;;;;;;4.50;4.40;;;21.30;99.90;;;;;;5026111;28;20456;-60
2023/10/05 11:22:29;;;;;;;5.00;4.90;;;21.30;99.90;;;;;;5023241;28;20441;-61
2023/10/05 11:25:15;;;;;;;5.47;5.30;;;21.30;99.90;;;;;;5022599;28;20540;-61
2023/10/05 11:27:47;;;;;;;5.33;5.20;;;21.30;99.90;;;;;;5025975;28;20457;-61
2023/10/05 11:30:21;;;;;;;4.97;4.87;;;21.30;99.90;;;;;;5024520;28;20452;-59
2023/10/05 11:32:54;;;;;;;5.43;5.23;;;21.30;99.90;;;;;;5022309;28;20528;-58
2023/10/05 11:35:29;;;;;;;5.03;4.83;;;21.30;99.90;;;;;;5024407;28;20564;-60
2023/10/05 11:38:00;;;;;;;5.13;5.00;;;21.30;99.90;;;;;;5025802;28;20810;-60
2023/10/05 11:40:34;;;;;;;5.43;5.13;;;21.30;99.90;;;;;;5022670;28;20474;-59
2023/10/05 11:43:06;;;;;;;5.60;5.40;;;21.30;99.90;;;;;;5022117;28;20454;-61
2023/10/05 11:45:34;;;;;;;5.83;5.63;;;21.30;99.90;;;;;;5014557;28;20477;-60
2023/10/05 11:48:11;;;;;;;5.00;4.90;;;21.30;99.90;;;;;;5022256;28;20450;-61
2023/10/05 11:50:50;;;;;;;4.90;4.77;;;21.30;99.90;;;;;;5015367;28;20840;-58
2023/10/05 11:53:20;;;;;;;4.73;4.63;;;21.30;99.90;;;;;;5023514;28;20442;-57
2023/10/05 11:55:49;;;;;;;4.67;4.57;;;21.40;99.90;;;;;;5025336;28;20603;-61
2023/10/05 11:58:18;;;;;;;4.93;4.63;;;21.30;99.90;;;;;;5023718;28;20445;-62
2023/10/05 12:00:45;;;;;;;4.80;4.70;;;21.40;99.90;;;;;;5021962;28;20481;-60
2023/10/05 12:03:16;;;;;;;5.30;5.10;;;21.40;99.90;;;;;;5022234;28;20477;-60
2023/10/05 12:05:43;;;;;;;5.37;5.27;;;21.30;99.90;;;;;;5025258;28;20477;-62
2023/10/05 12:08:12;;;;;;;4.93;4.83;;;21.40;99.90;;;;;;5024538;28;20468;-59
2023/10/05 12:10:42;;;;;;;4.67;4.57;;;21.40;99.90;;;;;;5021807;28;20528;-61
2023/10/05 12:13:09;;;;;;;4.63;4.53;;;21.40;99.90;;;;;;5021771;28;20442;-61
2023/10/05 12:15:38;;;;;;;4.70;4.60;;;21.40;99.90;;;;;;5025160;28;20516;-60
2023/10/05 12:18:12;;;;;;;4.83;4.63;;;21.40;99.90;;;;;;5025019;28;20455;-60
2023/10/05 12:20:41;;;;;;;5.60;5.47;;;21.40;99.90;;;;;;5014609;28;20449;-60
2023/10/05 12:23:10;;;;;;;4.60;4.40;;;21.40;99.90;;;;;;5021375;28;20446;-61
2023/10/05 12:25:37;;;;;;;4.80;4.70;;;21.40;99.90;;;;;;5025085;28;20447;-61
2023/10/05 12:28:05;;;;;;;4.43;4.33;;;21.40;99.90;;;;;;5025033;28;20480;-61
2023/10/05 12:30:32;;;;;;;4.67;4.53;;;21.40;99.90;;;;;;5024746;28;20954;-57
2023/10/05 12:33:00;;;;;;;4.40;4.30;;;21.40;99.90;;;;;;5024526;28;20878;-60
2023/10/05 12:35:29;;;;;;;5.37;5.27;;;21.40;99.90;;;;;;5021376;28;20616;-60
2023/10/05 12:37:58;;;;;;;4.80;4.70;;;21.40;99.90;;;;;;5021307;28;20453;-61
2023/10/05 12:40:33;;;;;;;5.00;4.70;;;21.40;99.90;;;;;;5023920;28;20477;-62
2023/10/05 12:43:01;;;;;;;5.60;5.40;;;21.40;99.90;;;;;;5017161;28;20442;-60
2023/10/05 12:45:28;;;;;;;5.00;4.90;;;21.40;99.90;;;;;;5023965;28;20491;-59
2023/10/05 12:47:55;;;;;;;4.97;4.80;;;21.40;99.90;;;;;;5024479;28;20744;-60
2023/10/05 12:50:27;;;;;;;5.10;4.90;;;21.40;99.90;;;;;;5016234;28;20449;-61
2023/10/05 12:52:56;;;;;;;5.17;5.00;;;21.40;99.90;;;;;;5024214;28;20441;-60
2023/10/05 12:55:23;;;;;;;5.00;4.90;;;21.40;99.90;;;;;;5022122;28;20481;-59
2023/10/05 12:57:52;;;;;;;5.20;5.10;;;21.40;99.90;;;;;;5020903;28;20446;-61
2023/10/05 13:00:27;;;;;;;4.90;4.80;;;21.40;99.90;;;;;;5022436;28;20454;-61
2023/10/05 13:02:55;;;;;;;4.70;4.60;;;21.40;99.90;;;;;;5023937;28;20539;-61
2023/10/05 13:05:28;;;;;;;4.77;4.67;;;21.40;99.90;;;;;;5022063;28;20519;-61
2023/10/05 13:07:55;;;;;;;4.50;4.40;;;21.50;99.90;;;;;;5020699;28;20446;-59